sensor_id;sensor_type;location;lat;lon;timestamp;P1;durP1;ratioP1;P2;durP2;ratioP2
5277;SDS011;2662;51.194;6.614;2023-07-13T00:01:40;7.10;;;1.60;;
5277;SDS011;2662;51.194;6.614;2023-07-13T00:04:07;4.70;;;1.40;;
5277;SDS011;2662;51.194;6.614;2023-07-13T00:06:34;7.47;;;1.40;;
5277;SDS011;2662;51.194;6.614;2023-07-13T00:09:01;5.77;;;1.20;;
5277;SDS011;2662;51.194;6.614;2023-07-13T00:11:28;11.47;;;1.80;;
5277;SDS011;2662;51.194;6.614;2023-07-13T00:13:56;5.00;;;1.67;;
5277;SDS011;2662;51.194;6.614;2023-07-13T00:16:22;6.53;;;1.90;;
5277;SDS011;2662;51.194;6.614;2023-07-13T00:18:48;4.73;;;1.30;;
5277;SDS011;2662;51.194;6.614;2023-07-13T00:21:15;1.83;;;1.20;;
5277;SDS011;2662;51.194;6.614;2023-07-13T00:23:42;8.63;;;1.53;;
5277;SDS011;2662;51.194;6.614;2023-07-13T00:26:09;6.93;;;1.63;;
5277;SDS011;2662;51.194;6.614;2023-07-13T00:28:37;5.40;;;1.37;;
5277;SDS011;2662;51.194;6.614;2023-07-13T00:31:08;12.67;;;1.40;;
5277;SDS011;2662;51.194;6.614;2023-07-13T00:33:35;3.60;;;1.30;;
5277;SDS011;2662;51.194;6.614;2023-07-13T00:36:02;7.30;;;1.40;;
5277;SDS011;2662;51.194;6.614;2023-07-13T00:38:29;3.90;;;1.43;;
5277;SDS011;2662;51.194;6.614;2023-07-13T00:40:56;5.97;;;1.27;;
5277;SDS011;2662;51.194;6.614;2023-07-13T00:43:25;9.43;;;1.40;;
5277;SDS011;2662;51.194;6.614;2023-07-13T00:46:16;10.30;;;2.13;;
5277;SDS011;2662;51.194;6.614;2023-07-13T00:48:48;18.60;;;1.77;;
5277;SDS011;2662;51.194;6.614;2023-07-13T00:51:17;6.30;;;1.70;;
5277;SDS011;2662;51.194;6.614;2023-07-13T00:53:47;4.20;;;1.83;;
5277;SDS011;2662;51.194;6.614;2023-07-13T00:56:15;4.13;;;1.77;;
5277;SDS011;2662;51.194;6.614;2023-07-13T00:58:42;11.13;;;1.73;;
5277;SDS011;2662;51.194;6.614;2023-07-13T01:01:09;6.17;;;1.27;;
5277;SDS011;2662;51.194;6.614;2023-07-13T01:03:39;8.00;;;1.70;;
5277;SDS011;2662;51.194;6.614;2023-07-13T01:06:06;7.70;;;1.40;;
5277;SDS011;2662;51.194;6.614;2023-07-13T01:08:33;4.00;;;1.70;;
5277;SDS011;2662;51.194;6.614;2023-07-13T01:11:00;8.00;;;1.70;;
5277;SDS011;2662;51.194;6.614;2023-07-13T01:13:27;10.53;;;2.23;;
5277;SDS011;2662;51.194;6.614;2023-07-13T01:15:55;2.83;;;1.73;;
5277;SDS011;2662;51.194;6.614;2023-07-13T01:18:25;8.57;;;1.57;;
5277;SDS011;2662;51.194;6.614;2023-07-13T01:20:55;7.10;;;1.67;;
5277;SDS011;2662;51.194;6.614;2023-07-13T01:23:23;8.47;;;1.67;;
5277;SDS011;2662;51.194;6.614;2023-07-13T01:25:51;6.43;;;2.20;;
5277;SDS011;2662;51.194;6.614;2023-07-13T01:28:19;3.00;;;1.47;;
5277;SDS011;2662;51.194;6.614;2023-07-13T01:30:46;7.10;;;1.90;;
5277;SDS011;2662;51.194;6.614;2023-07-13T01:33:13;9.93;;;1.87;;
5277;SDS011;2662;51.194;6.614;2023-07-13T01:35:42;6.90;;;1.80;;
5277;SDS011;2662;51.194;6.614;2023-07-13T01:38:11;8.30;;;1.90;;
5277;SDS011;2662;51.194;6.614;2023-07-13T01:40:42;4.10;;;1.60;;
5277;SDS011;2662;51.194;6.614;2023-07-13T01:43:10;5.30;;;1.50;;
5277;SDS011;2662;51.194;6.614;2023-07-13T01:45:36;9.43;;;1.60;;
5277;SDS011;2662;51.194;6.614;2023-07-13T01:48:03;4.50;;;1.57;;
5277;SDS011;2662;51.194;6.614;2023-07-13T01:50:31;9.83;;;1.57;;
5277;SDS011;2662;51.194;6.614;2023-07-13T01:52:58;3.83;;;1.70;;
5277;SDS011;2662;51.194;6.614;2023-07-13T01:55:27;5.90;;;1.80;;
5277;SDS011;2662;51.194;6.614;2023-07-13T01:57:54;21.10;;;1.70;;
5277;SDS011;2662;51.194;6.614;2023-07-13T02:00:21;3.93;;;1.60;;
5277;SDS011;2662;51.194;6.614;2023-07-13T02:02:48;9.30;;;1.50;;
5277;SDS011;2662;51.194;6.614;2023-07-13T02:05:14;10.23;;;1.50;;
5277;SDS011;2662;51.194;6.614;2023-07-13T02:07:41;8.67;;;1.57;;
5277;SDS011;2662;51.194;6.614;2023-07-13T02:10:09;5.37;;;1.63;;
5277;SDS011;2662;51.194;6.614;2023-07-13T02:12:38;16.87;;;2.07;;
5277;SDS011;2662;51.194;6.614;2023-07-13T02:15:05;5.20;;;1.50;;
5277;SDS011;2662;51.194;6.614;2023-07-13T02:17:33;6.90;;;1.50;;
5277;SDS011;2662;51.194;6.614;2023-07-13T02:20:00;3.60;;;1.73;;
5277;SDS011;2662;51.194;6.614;2023-07-13T02:22:27;7.00;;;1.40;;
5277;SDS011;2662;51.194;6.614;2023-07-13T02:24:54;3.47;;;1.40;;
5277;SDS011;2662;51.194;6.614;2023-07-13T02:27:21;5.50;;;1.27;;
5277;SDS011;2662;51.194;6.614;2023-07-13T02:29:49;5.47;;;1.50;;
5277;SDS011;2662;51.194;6.614;2023-07-13T02:32:17;2.47;;;1.70;;
5277;SDS011;2662;51.194;6.614;2023-07-13T02:34:43;2.60;;;1.33;;
5277;SDS011;2662;51.194;6.614;2023-07-13T02:37:10;4.27;;;2.33;;
5277;SDS011;2662;51.194;6.614;2023-07-13T02:39:37;6.80;;;1.67;;
5277;SDS011;2662;51.194;6.614;2023-07-13T02:42:04;3.40;;;1.70;;
5277;SDS011;2662;51.194;6.614;2023-07-13T02:44:31;6.93;;;1.47;;
5277;SDS011;2662;51.194;6.614;2023-07-13T02:46:59;4.60;;;1.90;;
5277;SDS011;2662;51.194;6.614;2023-07-13T02:49:26;4.90;;;1.80;;
5277;SDS011;2662;51.194;6.614;2023-07-13T02:51:53;3.83;;;1.70;;
5277;SDS011;2662;51.194;6.614;2023-07-13T02:54:19;8.23;;;2.47;;
5277;SDS011;2662;51.194;6.614;2023-07-13T02:56:46;6.87;;;1.60;;
5277;SDS011;2662;51.194;6.614;2023-07-13T02:59:13;5.83;;;1.30;;
5277;SDS011;2662;51.194;6.614;2023-07-13T03:01:39;7.70;;;1.60;;
5277;SDS011;2662;51.194;6.614;2023-07-13T03:04:07;4.00;;;1.40;;
5277;SDS011;2662;51.194;6.614;2023-07-13T03:06:34;4.10;;;1.23;;
5277;SDS011;2662;51.194;6.614;2023-07-13T03:09:01;4.97;;;1.37;;
5277;SDS011;2662;51.194;6.614;2023-07-13T03:11:29;5.23;;;1.87;;
5277;SDS011;2662;51.194;6.614;2023-07-13T03:13:56;4.57;;;1.47;;
5277;SDS011;2662;51.194;6.614;2023-07-13T03:16:23;6.50;;;1.80;;
5277;SDS011;2662;51.194;6.614;2023-07-13T03:18:50;10.70;;;1.83;;
5277;SDS011;2662;51.194;6.614;2023-07-13T03:21:18;3.83;;;2.03;;
5277;SDS011;2662;51.194;6.614;2023-07-13T03:23:44;7.03;;;1.73;;
5277;SDS011;2662;51.194;6.614;2023-07-13T03:26:13;7.00;;;1.70;;
5277;SDS011;2662;51.194;6.614;2023-07-13T03:28:41;10.50;;;2.23;;
5277;SDS011;2662;51.194;6.614;2023-07-13T03:31:09;2.70;;;1.50;;
5277;SDS011;2662;51.194;6.614;2023-07-13T03:33:38;9.50;;;2.10;;
5277;SDS011;2662;51.194;6.614;2023-07-13T03:36:05;4.10;;;1.77;;
5277;SDS011;2662;51.194;6.614;2023-07-13T03:38:34;4.83;;;1.60;;
5277;SDS011;2662;51.194;6.614;2023-07-13T03:41:01;8.03;;;2.40;;
5277;SDS011;2662;51.194;6.614;2023-07-13T03:43:28;8.70;;;1.83;;
5277;SDS011;2662;51.194;6.614;2023-07-13T03:45:55;4.70;;;1.60;;
5277;SDS011;2662;51.194;6.614;2023-07-13T03:48:21;6.00;;;1.63;;
5277;SDS011;2662;51.194;6.614;2023-07-13T03:50:48;7.53;;;2.20;;
5277;SDS011;2662;51.194;6.614;2023-07-13T03:53:15;3.37;;;1.57;;
5277;SDS011;2662;51.194;6.614;2023-07-13T03:55:44;10.43;;;1.90;;
5277;SDS011;2662;51.194;6.614;2023-07-13T03:58:25;11.90;;;1.87;;
5277;SDS011;2662;51.194;6.614;2023-07-13T04:00:54;6.50;;;1.90;;
5277;SDS011;2662;51.194;6.614;2023-07-13T04:03:22;13.00;;;2.17;;
5277;SDS011;2662;51.194;6.614;2023-07-13T04:05:49;8.27;;;1.80;;
5277;SDS011;2662;51.194;6.614;2023-07-13T04:08:16;9.93;;;1.20;;
5277;SDS011;2662;51.194;6.614;2023-07-13T04:10:44;8.53;;;2.00;;
5277;SDS011;2662;51.194;6.614;2023-07-13T04:13:11;12.27;;;2.03;;
5277;SDS011;2662;51.194;6.614;2023-07-13T04:15:38;8.70;;;1.50;;
5277;SDS011;2662;51.194;6.614;2023-07-13T04:18:05;10.93;;;1.50;;
5277;SDS011;2662;51.194;6.614;2023-07-13T04:20:32;2.20;;;1.23;;
5277;SDS011;2662;51.194;6.614;2023-07-13T04:22:59;6.13;;;1.87;;
5277;SDS011;2662;51.194;6.614;2023-07-13T04:25:26;7.80;;;1.43;;
5277;SDS011;2662;51.194;6.614;2023-07-13T04:27:54;9.27;;;2.30;;
5277;SDS011;2662;51.194;6.614;2023-07-13T04:30:21;8.50;;;2.07;;
5277;SDS011;2662;51.194;6.614;2023-07-13T04:32:49;10.53;;;2.30;;
5277;SDS011;2662;51.194;6.614;2023-07-13T04:35:17;5.30;;;1.90;;
5277;SDS011;2662;51.194;6.614;2023-07-13T04:37:45;6.33;;;1.50;;
5277;SDS011;2662;51.194;6.614;2023-07-13T04:40:12;5.53;;;1.80;;
5277;SDS011;2662;51.194;6.614;2023-07-13T04:42:39;7.47;;;2.17;;
5277;SDS011;2662;51.194;6.614;2023-07-13T04:45:07;6.80;;;1.90;;
5277;SDS011;2662;51.194;6.614;2023-07-13T04:47:34;3.40;;;1.70;;
5277;SDS011;2662;51.194;6.614;2023-07-13T04:50:01;6.00;;;1.77;;
5277;SDS011;2662;51.194;6.614;2023-07-13T04:52:28;3.40;;;1.93;;
5277;SDS011;2662;51.194;6.614;2023-07-13T04:54:55;4.90;;;1.80;;
5277;SDS011;2662;51.194;6.614;2023-07-13T04:57:21;6.23;;;2.00;;
5277;SDS011;2662;51.194;6.614;2023-07-13T04:59:48;4.33;;;1.60;;
5277;SDS011;2662;51.194;6.614;2023-07-13T05:02:16;5.40;;;1.73;;
5277;SDS011;2662;51.194;6.614;2023-07-13T05:04:45;14.10;;;2.40;;
5277;SDS011;2662;51.194;6.614;2023-07-13T05:07:12;2.30;;;1.23;;
5277;SDS011;2662;51.194;6.614;2023-07-13T05:09:39;8.13;;;1.77;;
5277;SDS011;2662;51.194;6.614;2023-07-13T05:12:06;3.83;;;2.03;;
5277;SDS011;2662;51.194;6.614;2023-07-13T05:14:35;3.37;;;1.77;;
5277;SDS011;2662;51.194;6.614;2023-07-13T05:17:01;6.00;;;1.90;;
5277;SDS011;2662;51.194;6.614;2023-07-13T05:19:29;6.33;;;2.00;;
5277;SDS011;2662;51.194;6.614;2023-07-13T05:21:56;2.80;;;1.50;;
5277;SDS011;2662;51.194;6.614;2023-07-13T05:24:23;10.83;;;1.83;;
5277;SDS011;2662;51.194;6.614;2023-07-13T05:26:50;5.27;;;2.10;;
5277;SDS011;2662;51.194;6.614;2023-07-13T05:29:16;6.03;;;1.70;;
5277;SDS011;2662;51.194;6.614;2023-07-13T05:31:43;4.90;;;1.90;;
5277;SDS011;2662;51.194;6.614;2023-07-13T05:34:10;7.40;;;2.10;;
5277;SDS011;2662;51.194;6.614;2023-07-13T05:36:38;8.40;;;2.20;;
5277;SDS011;2662;51.194;6.614;2023-07-13T05:39:06;8.57;;;1.87;;
5277;SDS011;2662;51.194;6.614;2023-07-13T05:41:33;7.33;;;1.60;;
5277;SDS011;2662;51.194;6.614;2023-07-13T05:44:00;6.80;;;2.47;;
5277;SDS011;2662;51.194;6.614;2023-07-13T05:46:26;7.23;;;1.83;;
5277;SDS011;2662;51.194;6.614;2023-07-13T05:48:53;9.40;;;2.37;;
5277;SDS011;2662;51.194;6.614;2023-07-13T05:51:20;6.50;;;1.67;;
5277;SDS011;2662;51.194;6.614;2023-07-13T05:53:48;6.60;;;1.60;;
5277;SDS011;2662;51.194;6.614;2023-07-13T05:56:14;6.30;;;2.00;;
5277;SDS011;2662;51.194;6.614;2023-07-13T05:58:41;4.90;;;1.60;;
5277;SDS011;2662;51.194;6.614;2023-07-13T06:01:10;11.83;;;2.20;;
5277;SDS011;2662;51.194;6.614;2023-07-13T06:03:38;9.53;;;2.47;;
5277;SDS011;2662;51.194;6.614;2023-07-13T06:06:05;6.90;;;2.13;;
5277;SDS011;2662;51.194;6.614;2023-07-13T06:08:33;9.13;;;2.10;;
5277;SDS011;2662;51.194;6.614;2023-07-13T06:11:05;10.70;;;2.60;;
5277;SDS011;2662;51.194;6.614;2023-07-13T06:13:33;5.97;;;2.20;;
5277;SDS011;2662;51.194;6.614;2023-07-13T06:16:00;7.63;;;2.77;;
5277;SDS011;2662;51.194;6.614;2023-07-13T06:18:29;8.63;;;2.67;;
5277;SDS011;2662;51.194;6.614;2023-07-13T06:20:55;9.47;;;2.63;;
5277;SDS011;2662;51.194;6.614;2023-07-13T06:23:22;11.33;;;2.73;;
5277;SDS011;2662;51.194;6.614;2023-07-13T06:25:49;11.67;;;2.60;;
5277;SDS011;2662;51.194;6.614;2023-07-13T06:28:17;10.97;;;2.40;;
5277;SDS011;2662;51.194;6.614;2023-07-13T06:30:44;10.97;;;2.57;;
5277;SDS011;2662;51.194;6.614;2023-07-13T06:33:11;8.83;;;2.63;;
5277;SDS011;2662;51.194;6.614;2023-07-13T06:35:38;9.43;;;3.13;;
5277;SDS011;2662;51.194;6.614;2023-07-13T06:38:04;10.23;;;3.00;;
5277;SDS011;2662;51.194;6.614;2023-07-13T06:40:31;10.60;;;2.57;;
5277;SDS011;2662;51.194;6.614;2023-07-13T06:42:58;12.73;;;2.70;;
5277;SDS011;2662;51.194;6.614;2023-07-13T06:45:26;6.87;;;2.53;;
5277;SDS011;2662;51.194;6.614;2023-07-13T06:47:52;12.57;;;2.93;;
5277;SDS011;2662;51.194;6.614;2023-07-13T06:50:19;12.27;;;2.93;;
5277;SDS011;2662;51.194;6.614;2023-07-13T06:52:46;6.40;;;2.17;;
5277;SDS011;2662;51.194;6.614;2023-07-13T06:55:13;9.37;;;3.10;;
5277;SDS011;2662;51.194;6.614;2023-07-13T06:57:40;10.27;;;3.00;;
5277;SDS011;2662;51.194;6.614;2023-07-13T07:00:07;9.10;;;2.97;;
5277;SDS011;2662;51.194;6.614;2023-07-13T07:02:36;10.53;;;3.03;;
5277;SDS011;2662;51.194;6.614;2023-07-13T07:05:03;12.50;;;3.33;;
5277;SDS011;2662;51.194;6.614;2023-07-13T07:07:30;12.57;;;3.50;;
5277;SDS011;2662;51.194;6.614;2023-07-13T07:09:57;6.20;;;2.90;;
5277;SDS011;2662;51.194;6.614;2023-07-13T07:12:23;6.87;;;2.90;;
5277;SDS011;2662;51.194;6.614;2023-07-13T07:14:50;9.13;;;2.50;;
5277;SDS011;2662;51.194;6.614;2023-07-13T07:17:17;9.40;;;2.87;;
5277;SDS011;2662;51.194;6.614;2023-07-13T07:19:45;14.07;;;2.70;;
5277;SDS011;2662;51.194;6.614;2023-07-13T07:22:12;9.00;;;2.50;;
5277;SDS011;2662;51.194;6.614;2023-07-13T07:24:39;7.10;;;2.63;;
5277;SDS011;2662;51.194;6.614;2023-07-13T07:27:05;6.67;;;2.53;;
5277;SDS011;2662;51.194;6.614;2023-07-13T07:29:32;13.57;;;3.17;;
5277;SDS011;2662;51.194;6.614;2023-07-13T07:31:59;14.17;;;2.80;;
5277;SDS011;2662;51.194;6.614;2023-07-13T07:34:26;4.67;;;2.50;;
5277;SDS011;2662;51.194;6.614;2023-07-13T07:36:54;9.60;;;2.93;;
5277;SDS011;2662;51.194;6.614;2023-07-13T07:39:23;5.07;;;2.20;;
5277;SDS011;2662;51.194;6.614;2023-07-13T07:41:49;15.00;;;2.70;;
5277;SDS011;2662;51.194;6.614;2023-07-13T07:44:16;10.03;;;2.83;;
5277;SDS011;2662;51.194;6.614;2023-07-13T07:46:43;5.73;;;2.20;;
5277;SDS011;2662;51.194;6.614;2023-07-13T07:49:10;6.13;;;2.30;;
5277;SDS011;2662;51.194;6.614;2023-07-13T07:51:37;11.30;;;2.80;;
5277;SDS011;2662;51.194;6.614;2023-07-13T07:54:05;9.13;;;2.50;;
5277;SDS011;2662;51.194;6.614;2023-07-13T07:56:32;9.43;;;2.50;;
5277;SDS011;2662;51.194;6.614;2023-07-13T07:58:59;12.67;;;3.70;;
5277;SDS011;2662;51.194;6.614;2023-07-13T08:01:25;4.63;;;2.40;;
5277;SDS011;2662;51.194;6.614;2023-07-13T08:03:52;6.27;;;2.33;;
5277;SDS011;2662;51.194;6.614;2023-07-13T08:06:19;10.40;;;3.23;;
5277;SDS011;2662;51.194;6.614;2023-07-13T08:08:47;16.83;;;2.60;;
5277;SDS011;2662;51.194;6.614;2023-07-13T08:11:15;9.17;;;2.80;;
5277;SDS011;2662;51.194;6.614;2023-07-13T08:13:42;8.73;;;3.03;;
5277;SDS011;2662;51.194;6.614;2023-07-13T08:16:10;8.20;;;2.93;;
5277;SDS011;2662;51.194;6.614;2023-07-13T08:18:37;12.13;;;2.90;;
5277;SDS011;2662;51.194;6.614;2023-07-13T08:21:04;7.43;;;3.07;;
5277;SDS011;2662;51.194;6.614;2023-07-13T08:23:31;8.40;;;2.90;;
5277;SDS011;2662;51.194;6.614;2023-07-13T08:25:58;7.37;;;2.40;;
5277;SDS011;2662;51.194;6.614;2023-07-13T08:28:27;8.17;;;3.07;;
5277;SDS011;2662;51.194;6.614;2023-07-13T08:30:54;7.60;;;3.47;;
5277;SDS011;2662;51.194;6.614;2023-07-13T08:33:22;9.23;;;3.03;;
5277;SDS011;2662;51.194;6.614;2023-07-13T08:35:49;8.20;;;2.80;;
5277;SDS011;2662;51.194;6.614;2023-07-13T08:38:17;6.20;;;2.50;;
5277;SDS011;2662;51.194;6.614;2023-07-13T08:40:45;9.20;;;2.70;;
5277;SDS011;2662;51.194;6.614;2023-07-13T08:43:18;9.40;;;3.20;;
5277;SDS011;2662;51.194;6.614;2023-07-13T08:45:51;11.23;;;2.80;;
5277;SDS011;2662;51.194;6.614;2023-07-13T08:48:21;5.27;;;2.47;;
5277;SDS011;2662;51.194;6.614;2023-07-13T08:50:54;10.23;;;2.90;;
5277;SDS011;2662;51.194;6.614;2023-07-13T08:53:24;9.50;;;3.07;;
5277;SDS011;2662;51.194;6.614;2023-07-13T08:55:57;8.63;;;2.47;;
5277;SDS011;2662;51.194;6.614;2023-07-13T08:58:25;4.17;;;2.30;;
5277;SDS011;2662;51.194;6.614;2023-07-13T09:00:56;9.83;;;2.70;;
5277;SDS011;2662;51.194;6.614;2023-07-13T09:03:30;7.20;;;2.53;;
5277;SDS011;2662;51.194;6.614;2023-07-13T09:06:03;9.40;;;2.63;;
5277;SDS011;2662;51.194;6.614;2023-07-13T09:08:37;8.83;;;2.60;;
5277;SDS011;2662;51.194;6.614;2023-07-13T09:11:16;4.90;;;2.57;;
5277;SDS011;2662;51.194;6.614;2023-07-13T09:13:56;8.23;;;3.00;;
5277;SDS011;2662;51.194;6.614;2023-07-13T09:16:28;8.70;;;2.70;;
5277;SDS011;2662;51.194;6.614;2023-07-13T09:18:56;9.20;;;2.80;;
5277;SDS011;2662;51.194;6.614;2023-07-13T09:21:29;7.17;;;2.67;;
5277;SDS011;2662;51.194;6.614;2023-07-13T09:23:58;7.90;;;1.93;;
5277;SDS011;2662;51.194;6.614;2023-07-13T09:26:29;11.10;;;2.07;;
5277;SDS011;2662;51.194;6.614;2023-07-13T09:28:59;6.10;;;2.30;;
5277;SDS011;2662;51.194;6.614;2023-07-13T09:31:39;8.43;;;2.00;;
5277;SDS011;2662;51.194;6.614;2023-07-13T09:34:09;8.67;;;2.53;;
5277;SDS011;2662;51.194;6.614;2023-07-13T09:36:37;6.47;;;2.50;;
5277;SDS011;2662;51.194;6.614;2023-07-13T09:39:05;8.73;;;2.63;;
5277;SDS011;2662;51.194;6.614;2023-07-13T09:41:40;4.73;;;1.80;;
5277;SDS011;2662;51.194;6.614;2023-07-13T09:44:14;5.67;;;1.60;;
5277;SDS011;2662;51.194;6.614;2023-07-13T09:46:45;4.70;;;1.87;;
5277;SDS011;2662;51.194;6.614;2023-07-13T09:49:13;7.00;;;2.50;;
5277;SDS011;2662;51.194;6.614;2023-07-13T09:51:40;8.10;;;2.50;;
5277;SDS011;2662;51.194;6.614;2023-07-13T09:54:16;7.70;;;2.43;;
5277;SDS011;2662;51.194;6.614;2023-07-13T09:56:45;5.60;;;2.27;;
5277;SDS011;2662;51.194;6.614;2023-07-13T09:59:18;4.33;;;1.60;;
5277;SDS011;2662;51.194;6.614;2023-07-13T10:01:47;6.20;;;2.00;;
5277;SDS011;2662;51.194;6.614;2023-07-13T10:04:16;7.10;;;2.00;;
5277;SDS011;2662;51.194;6.614;2023-07-13T10:06:45;2.90;;;2.00;;
5277;SDS011;2662;51.194;6.614;2023-07-13T10:09:15;4.30;;;1.73;;
5277;SDS011;2662;51.194;6.614;2023-07-13T10:11:44;4.00;;;1.97;;
5277;SDS011;2662;51.194;6.614;2023-07-13T10:14:12;6.40;;;2.33;;
5277;SDS011;2662;51.194;6.614;2023-07-13T10:16:41;7.93;;;1.97;;
5277;SDS011;2662;51.194;6.614;2023-07-13T10:19:12;7.93;;;2.40;;
5277;SDS011;2662;51.194;6.614;2023-07-13T10:21:43;3.90;;;1.80;;
5277;SDS011;2662;51.194;6.614;2023-07-13T10:24:15;4.93;;;1.93;;
5277;SDS011;2662;51.194;6.614;2023-07-13T10:26:46;7.50;;;2.10;;
5277;SDS011;2662;51.194;6.614;2023-07-13T10:29:17;4.67;;;1.80;;
5277;SDS011;2662;51.194;6.614;2023-07-13T10:31:44;11.10;;;1.77;;
5277;SDS011;2662;51.194;6.614;2023-07-13T10:34:13;4.50;;;1.93;;
5277;SDS011;2662;51.194;6.614;2023-07-13T10:36:40;3.40;;;2.10;;
5277;SDS011;2662;51.194;6.614;2023-07-13T10:39:10;7.53;;;1.80;;
5277;SDS011;2662;51.194;6.614;2023-07-13T10:41:42;5.10;;;2.10;;
5277;SDS011;2662;51.194;6.614;2023-07-13T10:44:15;3.90;;;1.80;;
5277;SDS011;2662;51.194;6.614;2023-07-13T10:46:50;4.27;;;2.00;;
5277;SDS011;2662;51.194;6.614;2023-07-13T10:49:20;5.50;;;1.83;;
5277;SDS011;2662;51.194;6.614;2023-07-13T10:51:48;8.90;;;1.83;;
5277;SDS011;2662;51.194;6.614;2023-07-13T10:54:18;9.60;;;2.20;;
5277;SDS011;2662;51.194;6.614;2023-07-13T10:56:49;7.33;;;1.80;;
5277;SDS011;2662;51.194;6.614;2023-07-13T10:59:18;6.90;;;2.20;;
5277;SDS011;2662;51.194;6.614;2023-07-13T11:01:52;6.40;;;2.47;;
5277;SDS011;2662;51.194;6.614;2023-07-13T11:04:25;4.20;;;1.80;;
5277;SDS011;2662;51.194;6.614;2023-07-13T11:06:56;8.33;;;1.80;;
5277;SDS011;2662;51.194;6.614;2023-07-13T11:09:31;9.30;;;2.20;;
5277;SDS011;2662;51.194;6.614;2023-07-13T11:12:07;7.73;;;1.50;;
5277;SDS011;2662;51.194;6.614;2023-07-13T11:14:42;7.87;;;1.90;;
5277;SDS011;2662;51.194;6.614;2023-07-13T11:17:33;8.80;;;2.27;;
5277;SDS011;2662;51.194;6.614;2023-07-13T11:20:18;7.53;;;1.97;;
5277;SDS011;2662;51.194;6.614;2023-07-13T11:22:49;4.33;;;1.60;;
5277;SDS011;2662;51.194;6.614;2023-07-13T11:25:21;7.37;;;1.80;;
5277;SDS011;2662;51.194;6.614;2023-07-13T11:28:04;7.57;;;2.00;;
5277;SDS011;2662;51.194;6.614;2023-07-13T11:30:35;5.10;;;1.47;;
5277;SDS011;2662;51.194;6.614;2023-07-13T11:33:10;1.83;;;1.70;;
5277;SDS011;2662;51.194;6.614;2023-07-13T11:35:46;8.20;;;1.80;;
5277;SDS011;2662;51.194;6.614;2023-07-13T11:38:18;5.00;;;1.93;;
5277;SDS011;2662;51.194;6.614;2023-07-13T11:40:47;4.67;;;2.13;;
5277;SDS011;2662;51.194;6.614;2023-07-13T11:43:17;5.40;;;1.80;;
5277;SDS011;2662;51.194;6.614;2023-07-13T11:45:44;6.77;;;1.80;;
5277;SDS011;2662;51.194;6.614;2023-07-13T11:48:20;5.97;;;1.70;;
5277;SDS011;2662;51.194;6.614;2023-07-13T11:50:51;6.17;;;2.00;;
5277;SDS011;2662;51.194;6.614;2023-07-13T11:53:21;3.17;;;1.63;;
5277;SDS011;2662;51.194;6.614;2023-07-13T11:55:49;2.70;;;1.53;;
5277;SDS011;2662;51.194;6.614;2023-07-13T11:58:17;2.37;;;1.33;;
5277;SDS011;2662;51.194;6.614;2023-07-13T12:00:48;5.90;;;1.60;;
5277;SDS011;2662;51.194;6.614;2023-07-13T12:03:17;4.90;;;1.50;;
5277;SDS011;2662;51.194;6.614;2023-07-13T12:06:00;3.30;;;1.50;;
5277;SDS011;2662;51.194;6.614;2023-07-13T12:08:30;3.50;;;1.60;;
5277;SDS011;2662;51.194;6.614;2023-07-13T12:11:04;6.60;;;1.57;;
5277;SDS011;2662;51.194;6.614;2023-07-13T12:13:36;3.33;;;1.10;;
5277;SDS011;2662;51.194;6.614;2023-07-13T12:16:10;3.87;;;1.20;;
5277;SDS011;2662;51.194;6.614;2023-07-13T12:18:40;1.80;;;1.23;;
5277;SDS011;2662;51.194;6.614;2023-07-13T12:21:13;2.90;;;1.03;;
5277;SDS011;2662;51.194;6.614;2023-07-13T12:23:43;3.90;;;1.30;;
5277;SDS011;2662;51.194;6.614;2023-07-13T12:26:14;3.40;;;1.30;;
5277;SDS011;2662;51.194;6.614;2023-07-13T12:28:44;3.20;;;1.47;;
5277;SDS011;2662;51.194;6.614;2023-07-13T12:31:31;3.73;;;1.50;;
5277;SDS011;2662;51.194;6.614;2023-07-13T12:34:01;2.80;;;1.43;;
5277;SDS011;2662;51.194;6.614;2023-07-13T12:36:34;4.13;;;1.40;;
5277;SDS011;2662;51.194;6.614;2023-07-13T12:39:06;3.50;;;1.30;;
5277;SDS011;2662;51.194;6.614;2023-07-13T12:41:41;7.07;;;1.43;;
5277;SDS011;2662;51.194;6.614;2023-07-13T12:44:11;1.33;;;1.20;;
5277;SDS011;2662;51.194;6.614;2023-07-13T12:46:39;2.50;;;1.10;;
5277;SDS011;2662;51.194;6.614;2023-07-13T12:49:16;7.57;;;1.60;;
5277;SDS011;2662;51.194;6.614;2023-07-13T12:51:49;4.10;;;1.47;;
5277;SDS011;2662;51.194;6.614;2023-07-13T12:54:17;2.43;;;1.30;;
5277;SDS011;2662;51.194;6.614;2023-07-13T12:56:44;5.10;;;1.63;;
5277;SDS011;2662;51.194;6.614;2023-07-13T12:59:18;4.83;;;1.60;;
5277;SDS011;2662;51.194;6.614;2023-07-13T13:01:46;3.53;;;1.53;;
5277;SDS011;2662;51.194;6.614;2023-07-13T13:04:15;7.73;;;1.33;;
5277;SDS011;2662;51.194;6.614;2023-07-13T13:06:47;10.57;;;2.07;;
5277;SDS011;2662;51.194;6.614;2023-07-13T13:09:16;4.57;;;1.60;;
5277;SDS011;2662;51.194;6.614;2023-07-13T13:11:43;2.80;;;1.40;;
5277;SDS011;2662;51.194;6.614;2023-07-13T13:14:10;2.27;;;1.20;;
5277;SDS011;2662;51.194;6.614;2023-07-13T13:16:39;8.03;;;1.43;;
5277;SDS011;2662;51.194;6.614;2023-07-13T13:19:13;6.40;;;1.63;;
5277;SDS011;2662;51.194;6.614;2023-07-13T13:21:42;3.13;;;1.70;;
5277;SDS011;2662;51.194;6.614;2023-07-13T13:24:12;5.10;;;1.70;;
5277;SDS011;2662;51.194;6.614;2023-07-13T13:26:41;8.37;;;1.33;;
5277;SDS011;2662;51.194;6.614;2023-07-13T13:29:10;3.13;;;1.60;;
5277;SDS011;2662;51.194;6.614;2023-07-13T13:31:39;3.67;;;1.53;;
5277;SDS011;2662;51.194;6.614;2023-07-13T13:34:07;6.33;;;1.40;;
5277;SDS011;2662;51.194;6.614;2023-07-13T13:36:35;2.80;;;1.50;;
5277;SDS011;2662;51.194;6.614;2023-07-13T13:39:02;2.37;;;1.53;;
5277;SDS011;2662;51.194;6.614;2023-07-13T13:41:32;3.20;;;1.27;;
5277;SDS011;2662;51.194;6.614;2023-07-13T13:43:59;2.63;;;1.30;;
5277;SDS011;2662;51.194;6.614;2023-07-13T13:46:26;3.70;;;1.13;;
5277;SDS011;2662;51.194;6.614;2023-07-13T13:48:54;2.43;;;1.43;;
5277;SDS011;2662;51.194;6.614;2023-07-13T13:51:22;1.57;;;1.33;;
5277;SDS011;2662;51.194;6.614;2023-07-13T13:53:50;5.60;;;1.50;;
5277;SDS011;2662;51.194;6.614;2023-07-13T13:56:18;4.60;;;1.83;;
5277;SDS011;2662;51.194;6.614;2023-07-13T13:58:47;1.60;;;1.50;;
5277;SDS011;2662;51.194;6.614;2023-07-13T14:01:16;6.80;;;1.80;;
5277;SDS011;2662;51.194;6.614;2023-07-13T14:03:44;5.23;;;1.63;;
5277;SDS011;2662;51.194;6.614;2023-07-13T14:06:13;4.23;;;1.80;;
5277;SDS011;2662;51.194;6.614;2023-07-13T14:08:41;6.77;;;1.50;;
5277;SDS011;2662;51.194;6.614;2023-07-13T14:11:09;1.80;;;1.20;;
5277;SDS011;2662;51.194;6.614;2023-07-13T14:13:39;6.60;;;1.53;;
5277;SDS011;2662;51.194;6.614;2023-07-13T14:16:11;5.50;;;1.83;;
5277;SDS011;2662;51.194;6.614;2023-07-13T14:18:42;4.57;;;1.60;;
5277;SDS011;2662;51.194;6.614;2023-07-13T14:21:11;3.70;;;1.63;;
5277;SDS011;2662;51.194;6.614;2023-07-13T14:23:39;1.50;;;1.40;;
5277;SDS011;2662;51.194;6.614;2023-07-13T14:26:09;7.97;;;1.60;;
5277;SDS011;2662;51.194;6.614;2023-07-13T14:28:38;3.50;;;1.47;;
5277;SDS011;2662;51.194;6.614;2023-07-13T14:31:08;5.90;;;1.63;;
5277;SDS011;2662;51.194;6.614;2023-07-13T14:33:36;8.60;;;2.07;;
5277;SDS011;2662;51.194;6.614;2023-07-13T14:36:05;26.27;;;2.90;;
5277;SDS011;2662;51.194;6.614;2023-07-13T14:38:42;6.70;;;2.00;;
5277;SDS011;2662;51.194;6.614;2023-07-13T14:41:09;3.00;;;1.80;;
5277;SDS011;2662;51.194;6.614;2023-07-13T14:43:36;4.00;;;1.80;;
5277;SDS011;2662;51.194;6.614;2023-07-13T14:46:02;7.47;;;2.43;;
5277;SDS011;2662;51.194;6.614;2023-07-13T14:48:31;3.73;;;1.97;;
5277;SDS011;2662;51.194;6.614;2023-07-13T14:50:58;5.03;;;1.80;;
5277;SDS011;2662;51.194;6.614;2023-07-13T14:53:25;12.43;;;2.07;;
5277;SDS011;2662;51.194;6.614;2023-07-13T14:55:53;12.33;;;2.70;;
5277;SDS011;2662;51.194;6.614;2023-07-13T14:58:20;4.73;;;2.27;;
5277;SDS011;2662;51.194;6.614;2023-07-13T15:00:48;10.40;;;2.87;;
5277;SDS011;2662;51.194;6.614;2023-07-13T15:03:16;5.30;;;2.30;;
5277;SDS011;2662;51.194;6.614;2023-07-13T15:05:47;6.90;;;2.30;;
5277;SDS011;2662;51.194;6.614;2023-07-13T15:08:15;5.33;;;2.40;;
5277;SDS011;2662;51.194;6.614;2023-07-13T15:10:42;9.90;;;2.17;;
5277;SDS011;2662;51.194;6.614;2023-07-13T15:13:13;3.80;;;2.33;;
5277;SDS011;2662;51.194;6.614;2023-07-13T15:15:41;8.73;;;1.80;;
5277;SDS011;2662;51.194;6.614;2023-07-13T15:18:11;3.77;;;1.70;;
5277;SDS011;2662;51.194;6.614;2023-07-13T15:20:39;7.70;;;2.43;;
5277;SDS011;2662;51.194;6.614;2023-07-13T15:23:09;3.40;;;1.73;;